createdAt,value
2018-03-04T00:00:33.709Z,997.8
2018-03-04T00:01:35.538Z,997.8
2018-03-04T00:02:37.280Z,997.8
2018-03-04T00:03:38.981Z,997.8
2018-03-04T00:04:40.679Z,997.8
2018-03-04T00:05:42.364Z,997.8
2018-03-04T00:06:44.114Z,997.8
2018-03-04T00:07:45.828Z,997.8
2018-03-04T00:08:47.600Z,997.8
2018-03-04T00:09:49.286Z,997.9
2018-03-04T00:10:51.010Z,997.8
2018-03-04T00:11:52.836Z,997.9
2018-03-04T00:12:54.851Z,997.9
2018-03-04T00:13:56.800Z,997.9
2018-03-04T00:14:58.984Z,997.9
2018-03-04T00:16:00.675Z,997.8
2018-03-04T00:17:02.413Z,997.9
2018-03-04T00:18:04.136Z,997.9
2018-03-04T00:19:05.822Z,997.8
2018-03-04T00:20:07.542Z,997.8
2018-03-04T00:21:09.691Z,997.9
2018-03-04T00:22:11.581Z,997.9
2018-03-04T00:23:13.302Z,997.9
2018-03-04T00:24:15.003Z,997.9
2018-03-04T00:25:17.085Z,997.9
2018-03-04T00:26:18.783Z,997.9
2018-03-04T00:27:20.468Z,997.9
2018-03-04T00:28:22.171Z,998.0
2018-03-04T00:29:23.881Z,997.9
2018-03-04T00:30:25.559Z,998.0
2018-03-04T00:31:27.255Z,997.9
2018-03-04T00:32:28.953Z,998.0
2018-03-04T00:33:30.681Z,997.9
2018-03-04T00:34:32.364Z,997.9
2018-03-04T00:35:34.077Z,997.9
2018-03-04T00:36:35.776Z,998.0
2018-03-04T00:37:37.465Z,998.0
2018-03-04T00:38:39.416Z,998.0
2018-03-04T00:39:41.112Z,998.0
2018-03-04T00:40:42.793Z,997.9
2018-03-04T00:41:44.498Z,997.9
2018-03-04T00:42:46.176Z,998.0
2018-03-04T00:43:47.889Z,998.0
2018-03-04T00:44:49.601Z,998.0
2018-03-04T00:45:51.299Z,998.0
2018-03-04T00:46:53.003Z,998.1
2018-03-04T00:47:54.698Z,998.0
2018-03-04T00:48:56.530Z,998.0
2018-03-04T00:49:58.228Z,998.0
2018-03-04T00:50:59.925Z,998.0
2018-03-04T00:52:01.614Z,998.0
2018-03-04T00:53:03.321Z,998.0
2018-03-04T00:54:04.992Z,998.1
2018-03-04T00:55:06.686Z,998.0
2018-03-04T00:56:08.426Z,998.0
2018-03-04T00:57:10.104Z,998.0
2018-03-04T00:58:11.782Z,998.0
2018-03-04T00:59:13.471Z,998.0
2018-03-04T01:00:15.160Z,998.1
2018-03-04T01:01:16.853Z,998.1
2018-03-04T01:02:18.551Z,998.1
2018-03-04T01:03:20.246Z,998.1
2018-03-04T01:04:21.937Z,998.0
2018-03-04T01:05:24.428Z,998.0
2018-03-04T01:06:25.294Z,998.0
2018-03-04T01:07:26.977Z,998.0
2018-03-04T01:08:28.667Z,998.0
2018-03-04T01:09:30.358Z,998.0
2018-03-04T01:10:32.109Z,997.9
2018-03-04T01:11:33.777Z,997.9
2018-03-04T01:12:35.463Z,997.9
2018-03-04T01:13:37.208Z,997.8
2018-03-04T01:14:38.930Z,997.9
2018-03-04T01:15:40.631Z,997.9
2018-03-04T01:16:42.327Z,997.9
2018-03-04T01:17:44.059Z,997.8
2018-03-04T01:18:45.755Z,997.8
2018-03-04T01:19:47.464Z,997.9
2018-03-04T01:20:49.157Z,997.8
2018-03-04T01:21:50.848Z,997.9
2018-03-04T01:22:52.544Z,997.8
2018-03-04T01:23:54.239Z,997.9
2018-03-04T01:24:55.942Z,997.8
2018-03-04T01:25:57.629Z,997.9
2018-03-04T01:26:59.322Z,997.8
2018-03-04T01:28:01.047Z,997.8
2018-03-04T01:29:02.710Z,997.9
2018-03-04T01:30:04.437Z,997.9
2018-03-04T01:31:06.136Z,997.9
2018-03-04T01:32:07.836Z,997.9
2018-03-04T01:33:09.528Z,997.9
2018-03-04T01:34:11.214Z,997.9
2018-03-04T01:35:12.938Z,997.9
2018-03-04T01:36:14.644Z,997.9
2018-03-04T01:37:16.310Z,997.9
2018-03-04T01:38:18.035Z,997.9
2018-03-04T01:39:19.725Z,997.9
2018-03-04T01:40:21.414Z,997.9
2018-03-04T01:41:23.161Z,997.9
2018-03-04T01:42:24.863Z,997.9
2018-03-04T01:43:26.552Z,997.9
2018-03-04T01:44:28.247Z,997.9
2018-03-04T01:45:29.929Z,997.9
2018-03-04T01:46:31.615Z,997.9
2018-03-04T01:47:33.313Z,997.9
2018-03-04T01:48:35.024Z,997.8
2018-03-04T01:49:36.712Z,997.9
2018-03-04T01:50:38.404Z,997.9
2018-03-04T01:51:40.084Z,997.9
2018-03-04T01:52:41.795Z,997.9
2018-03-04T01:53:43.493Z,997.9
2018-03-04T01:54:45.175Z,997.9
2018-03-04T01:55:46.856Z,997.9
2018-03-04T01:56:48.634Z,997.9
2018-03-04T01:57:50.350Z,997.9
2018-03-04T01:58:52.033Z,997.9
2018-03-04T01:59:53.750Z,997.9
2018-03-04T02:00:55.505Z,997.9
2018-03-04T02:01:57.173Z,997.9
2018-03-04T02:02:58.911Z,997.8
2018-03-04T02:04:00.620Z,997.9
2018-03-04T02:05:02.325Z,997.9
2018-03-04T02:06:04.030Z,997.9
2018-03-04T02:07:05.730Z,997.9
2018-03-04T02:08:07.451Z,997.9
2018-03-04T02:09:09.142Z,997.9
2018-03-04T02:10:10.853Z,997.9
2018-03-04T02:11:12.550Z,997.9
2018-03-04T02:12:14.264Z,997.9
2018-03-04T02:13:15.957Z,997.9
2018-03-04T02:14:17.654Z,997.8
2018-03-04T02:15:19.347Z,997.9
2018-03-04T02:16:21.038Z,997.9
2018-03-04T02:17:22.740Z,997.9
2018-03-04T02:18:24.426Z,997.9
2018-03-04T02:19:26.146Z,997.9
2018-03-04T02:20:27.849Z,997.9
2018-03-04T02:21:29.557Z,997.8
2018-03-04T02:22:31.292Z,997.8
2018-03-04T02:23:32.993Z,997.8
2018-03-04T02:24:34.679Z,997.8
2018-03-04T02:25:36.387Z,997.8
2018-03-04T02:26:38.100Z,997.9
2018-03-04T02:27:39.838Z,997.8
2018-03-04T02:28:41.516Z,997.8
2018-03-04T02:29:43.201Z,997.8
2018-03-04T02:30:44.920Z,997.8
2018-03-04T02:31:46.613Z,997.8
2018-03-04T02:32:48.368Z,997.8
2018-03-04T02:33:50.049Z,997.8
2018-03-04T02:34:51.737Z,997.9
2018-03-04T02:35:53.436Z,997.8
2018-03-04T02:36:55.161Z,997.8
2018-03-04T02:37:56.829Z,997.8
2018-03-04T02:38:58.527Z,997.9
2018-03-04T02:40:00.213Z,997.9
2018-03-04T02:41:01.938Z,997.9
2018-03-04T02:42:03.620Z,997.8
2018-03-04T02:43:05.306Z,997.8
2018-03-04T02:44:07.053Z,997.8
2018-03-04T02:45:08.737Z,997.8
2018-03-04T02:46:10.443Z,997.8
2018-03-04T02:47:13.356Z,997.8
2018-03-04T02:48:14.877Z,997.8
2018-03-04T02:49:16.579Z,997.8
2018-03-04T02:50:18.269Z,997.8
2018-03-04T02:51:20.022Z,997.8
2018-03-04T02:52:21.742Z,997.8
2018-03-04T02:53:23.456Z,997.8
2018-03-04T02:54:25.209Z,997.8
2018-03-04T02:55:26.926Z,997.8
2018-03-04T02:56:28.628Z,997.8
2018-03-04T02:57:30.341Z,997.8
2018-03-04T02:58:32.056Z,997.8
2018-03-04T02:59:33.754Z,997.8
2018-03-04T03:00:35.430Z,997.8
2018-03-04T03:01:37.154Z,997.8
2018-03-04T03:02:38.864Z,997.8
2018-03-04T03:03:40.555Z,997.8
2018-03-04T03:04:42.257Z,997.8
2018-03-04T03:05:43.953Z,997.8
2018-03-04T03:06:45.628Z,997.8
2018-03-04T03:07:47.323Z,997.8
2018-03-04T03:08:49.026Z,997.8
2018-03-04T03:09:50.720Z,997.8
2018-03-04T03:10:52.403Z,997.8
2018-03-04T03:11:54.098Z,997.8
2018-03-04T03:12:55.789Z,997.8
2018-03-04T03:13:57.483Z,997.8
2018-03-04T03:14:59.174Z,997.8
2018-03-04T03:16:00.899Z,997.8
2018-03-04T03:17:02.600Z,997.8
2018-03-04T03:18:04.286Z,997.8
2018-03-04T03:19:05.991Z,997.8
2018-03-04T03:20:07.686Z,997.7
2018-03-04T03:21:09.449Z,997.8
2018-03-04T03:22:11.182Z,997.8
2018-03-04T03:23:12.909Z,997.8
2018-03-04T03:24:14.591Z,997.8
2018-03-04T03:25:16.281Z,997.8
2018-03-04T03:26:17.984Z,997.8
2018-03-04T03:27:19.664Z,997.8
2018-03-04T03:28:21.359Z,997.8
2018-03-04T03:29:23.048Z,997.8
2018-03-04T03:30:24.731Z,997.7
2018-03-04T03:31:26.412Z,997.8
2018-03-04T03:32:28.108Z,997.8
2018-03-04T03:33:29.825Z,997.8
2018-03-04T03:34:31.515Z,997.8
2018-03-04T03:35:33.255Z,997.8
2018-03-04T03:36:34.975Z,997.8
2018-03-04T03:37:36.679Z,997.8
2018-03-04T03:38:38.352Z,997.7
2018-03-04T03:39:40.070Z,997.8
2018-03-04T03:40:41.772Z,997.8
2018-03-04T03:41:43.518Z,997.8
2018-03-04T03:42:45.177Z,997.8
2018-03-04T03:43:46.857Z,997.8
2018-03-04T03:44:48.567Z,997.7
2018-03-04T03:45:50.338Z,997.7
2018-03-04T03:46:52.164Z,997.7
2018-03-04T03:47:53.869Z,997.7
2018-03-04T03:48:55.574Z,997.7
2018-03-04T03:49:57.269Z,997.7
2018-03-04T03:50:58.950Z,997.7
2018-03-04T03:52:00.648Z,997.7
2018-03-04T03:53:02.370Z,997.7
2018-03-04T03:54:04.104Z,997.6
2018-03-04T03:55:05.776Z,997.6
2018-03-04T03:56:07.481Z,997.6
2018-03-04T03:57:09.187Z,997.6
2018-03-04T03:58:10.862Z,997.6
2018-03-04T03:59:12.544Z,997.6
2018-03-04T04:00:14.242Z,997.7
2018-03-04T04:01:15.923Z,997.7
2018-03-04T04:02:17.606Z,997.7
2018-03-04T04:03:19.312Z,997.7
2018-03-04T04:04:21.002Z,997.7
2018-03-04T04:05:22.675Z,997.7
2018-03-04T04:06:24.388Z,997.8
2018-03-04T04:07:26.165Z,997.8
2018-03-04T04:08:27.844Z,997.8
2018-03-04T04:09:29.549Z,997.8
2018-03-04T04:10:31.240Z,997.8
2018-03-04T04:11:33.076Z,997.8
2018-03-04T04:12:34.790Z,997.8
2018-03-04T04:13:36.476Z,997.8
2018-03-04T04:14:38.174Z,997.9
2018-03-04T04:15:39.842Z,997.9
2018-03-04T04:16:41.565Z,997.9
2018-03-04T04:17:43.269Z,997.9
2018-03-04T04:18:44.960Z,997.9
2018-03-04T04:19:46.642Z,997.9
2018-03-04T04:20:48.349Z,998.0
2018-03-04T04:21:50.019Z,997.9
2018-03-04T04:22:51.725Z,997.9
2018-03-04T04:23:53.426Z,997.9
2018-03-04T04:24:55.118Z,997.9
2018-03-04T04:25:56.819Z,997.9
2018-03-04T04:26:58.502Z,997.9
2018-03-04T04:28:00.172Z,997.9
2018-03-04T04:29:01.872Z,997.9
2018-03-04T04:30:03.552Z,997.9
2018-03-04T04:31:05.263Z,998.0
2018-03-04T04:32:07.039Z,998.0
2018-03-04T04:33:08.721Z,998.0
2018-03-04T04:34:10.398Z,998.0
2018-03-04T04:35:12.095Z,998.0
2018-03-04T04:36:13.779Z,998.0
2018-03-04T04:37:15.486Z,998.0
2018-03-04T04:38:17.170Z,998.0
2018-03-04T04:39:18.858Z,998.0
2018-03-04T04:40:20.548Z,998.1
2018-03-04T04:41:22.234Z,998.1
2018-03-04T04:42:23.914Z,998.1
2018-03-04T04:43:25.601Z,998.1
2018-03-04T04:44:27.370Z,998.1
2018-03-04T04:45:28.978Z,998.1
2018-03-04T04:46:30.676Z,998.1
2018-03-04T04:47:32.361Z,998.1
2018-03-04T04:48:34.040Z,998.1
2018-03-04T04:49:35.739Z,998.1
2018-03-04T04:50:37.418Z,998.1
2018-03-04T04:51:39.108Z,998.1
2018-03-04T04:52:40.807Z,998.1
2018-03-04T04:53:42.518Z,998.1
2018-03-04T04:54:44.189Z,998.1
2018-03-04T04:55:45.913Z,998.1
2018-03-04T04:56:47.620Z,998.0
2018-03-04T04:57:49.323Z,998.0
2018-03-04T04:58:51.036Z,998.0
2018-03-04T04:59:52.739Z,998.0
2018-03-04T05:00:54.445Z,998.0
2018-03-04T05:01:56.132Z,998.0
2018-03-04T05:02:57.815Z,998.0
2018-03-04T05:03:59.557Z,998.0
2018-03-04T05:05:01.245Z,998.0
2018-03-04T05:06:02.949Z,998.0
2018-03-04T05:07:04.637Z,998.0
2018-03-04T05:08:06.356Z,998.0
2018-03-04T05:09:08.027Z,998.0
2018-03-04T05:10:09.756Z,998.0
2018-03-04T05:11:11.431Z,998.0
2018-03-04T05:12:13.148Z,998.0
2018-03-04T05:13:14.845Z,998.1
2018-03-04T05:14:16.567Z,998.1
2018-03-04T05:15:18.257Z,998.1
2018-03-04T05:16:19.949Z,998.2
2018-03-04T05:17:21.636Z,998.2
2018-03-04T05:18:23.323Z,998.1
2018-03-04T05:19:24.999Z,998.2
2018-03-04T05:20:26.696Z,998.2
2018-03-04T05:21:28.376Z,998.2
2018-03-04T05:22:30.068Z,998.1
2018-03-04T05:23:31.764Z,998.2
2018-03-04T05:24:33.511Z,998.2
2018-03-04T05:25:35.171Z,998.2
2018-03-04T05:26:36.847Z,998.2
2018-03-04T05:27:38.527Z,998.3
2018-03-04T05:28:40.201Z,998.3
2018-03-04T05:29:41.878Z,998.3
2018-03-04T05:30:43.567Z,998.3
2018-03-04T05:31:45.235Z,998.3
2018-03-04T05:32:46.916Z,998.3
2018-03-04T05:33:48.602Z,998.4
2018-03-04T05:34:50.290Z,998.4
2018-03-04T05:35:51.967Z,998.4
2018-03-04T05:36:53.660Z,998.4
2018-03-04T05:37:55.347Z,998.4
2018-03-04T05:38:57.032Z,998.4
2018-03-04T05:39:58.729Z,998.5
2018-03-04T05:41:00.417Z,998.4
2018-03-04T05:42:02.099Z,998.4
2018-03-04T05:43:03.784Z,998.4
2018-03-04T05:44:05.469Z,998.5
2018-03-04T05:45:07.172Z,998.5
2018-03-04T05:46:08.880Z,998.5
2018-03-04T05:47:10.565Z,998.6
2018-03-04T05:48:12.244Z,998.6
2018-03-04T05:49:13.966Z,998.6
2018-03-04T05:50:15.715Z,998.6
2018-03-04T05:51:17.397Z,998.6
2018-03-04T05:52:19.077Z,998.7
2018-03-04T05:53:20.764Z,998.7
2018-03-04T05:54:22.477Z,998.7
2018-03-04T05:55:24.160Z,998.7
2018-03-04T05:56:25.866Z,998.8
2018-03-04T05:57:27.566Z,998.8
2018-03-04T05:58:29.258Z,998.8
2018-03-04T05:59:30.964Z,998.8
2018-03-04T06:00:32.636Z,998.8
2018-03-04T06:01:34.323Z,998.8
2018-03-04T06:02:36.006Z,998.9
2018-03-04T06:03:37.677Z,998.9
2018-03-04T06:04:39.358Z,998.9
2018-03-04T06:05:41.050Z,999.0
2018-03-04T06:06:42.749Z,999.0
2018-03-04T06:07:44.443Z,999.0
2018-03-04T06:08:46.127Z,999.0
2018-03-04T06:09:47.812Z,998.9
2018-03-04T06:10:49.515Z,998.9
2018-03-04T06:11:51.176Z,998.9
2018-03-04T06:12:52.850Z,998.9
2018-03-04T06:13:54.571Z,998.9
2018-03-04T06:14:56.264Z,998.9
2018-03-04T06:15:58.085Z,999.0
2018-03-04T06:16:59.784Z,999.0
2018-03-04T06:18:01.550Z,999.0
2018-03-04T06:19:03.229Z,999.0
2018-03-04T06:20:04.926Z,999.0
2018-03-04T06:21:06.612Z,999.0
2018-03-04T06:22:08.308Z,999.1
2018-03-04T06:23:10.005Z,999.0
2018-03-04T06:24:11.775Z,999.1
2018-03-04T06:25:13.458Z,999.1
2018-03-04T06:26:15.142Z,999.0
2018-03-04T06:27:16.816Z,999.1
2018-03-04T06:28:18.511Z,999.1
2018-03-04T06:29:20.212Z,999.0
2018-03-04T06:30:21.883Z,999.1
2018-03-04T06:31:23.575Z,999.0
2018-03-04T06:32:25.257Z,999.0
2018-03-04T06:33:27.031Z,999.0
2018-03-04T06:34:28.626Z,999.0
2018-03-04T06:35:30.303Z,999.0
2018-03-04T06:36:31.986Z,999.0
2018-03-04T06:37:33.684Z,999.0
2018-03-04T06:38:35.377Z,999.0
2018-03-04T06:39:37.062Z,999.0
2018-03-04T06:40:38.746Z,999.1
2018-03-04T06:41:40.437Z,999.1
2018-03-04T06:42:42.136Z,999.0
2018-03-04T06:43:43.822Z,999.1
2018-03-04T06:44:45.519Z,999.1
2018-03-04T06:45:47.217Z,999.1
2018-03-04T06:46:48.912Z,999.1
2018-03-04T06:47:50.601Z,999.1
2018-03-04T06:48:52.290Z,999.1
2018-03-04T06:49:53.983Z,999.1
2018-03-04T06:50:55.656Z,999.1
2018-03-04T06:51:57.360Z,999.1
2018-03-04T06:52:59.039Z,999.1
2018-03-04T06:54:00.725Z,999.1
2018-03-04T06:55:02.410Z,999.1
2018-03-04T06:56:04.115Z,999.0
2018-03-04T06:57:05.828Z,999.0
2018-03-04T06:58:07.514Z,999.0
2018-03-04T06:59:09.215Z,999.0
2018-03-04T07:00:10.909Z,999.0
2018-03-04T07:01:12.617Z,999.0
2018-03-04T07:02:14.292Z,999.0
2018-03-04T07:03:16.072Z,999.0
2018-03-04T07:04:17.745Z,999.0
2018-03-04T07:05:19.468Z,998.9
2018-03-04T07:06:21.180Z,998.9
2018-03-04T07:07:22.884Z,998.9
2018-03-04T07:08:24.578Z,998.9
2018-03-04T07:09:26.327Z,999.0
2018-03-04T07:10:28.065Z,999.0
2018-03-04T07:11:29.734Z,999.0
2018-03-04T07:12:31.412Z,999.0
2018-03-04T07:13:33.112Z,999.0
2018-03-04T07:14:34.811Z,999.0
2018-03-04T07:15:36.539Z,999.0
2018-03-04T07:16:38.257Z,999.0
2018-03-04T07:17:39.977Z,999.0
2018-03-04T07:18:41.690Z,999.0
2018-03-04T07:19:43.400Z,999.1
2018-03-04T07:20:45.103Z,999.1
2018-03-04T07:21:46.792Z,999.1
2018-03-04T07:22:48.468Z,999.1
2018-03-04T07:23:50.202Z,999.1
2018-03-04T07:24:51.871Z,999.1
2018-03-04T07:25:53.581Z,999.0
2018-03-04T07:26:55.290Z,999.0
2018-03-04T07:27:56.997Z,999.0
2018-03-04T07:28:58.672Z,998.9
2018-03-04T07:30:00.373Z,998.9
2018-03-04T07:31:02.067Z,998.9
2018-03-04T07:32:03.778Z,998.9
2018-03-04T07:33:05.486Z,998.9
2018-03-04T07:34:07.179Z,999.0
2018-03-04T07:35:08.911Z,999.0
2018-03-04T07:36:10.555Z,999.0
2018-03-04T07:37:12.267Z,999.0
2018-03-04T07:38:13.973Z,999.0
2018-03-04T07:39:15.653Z,999.0
2018-03-04T07:40:17.346Z,999.0
2018-03-04T07:41:19.043Z,999.0
2018-03-04T07:42:20.742Z,999.0
2018-03-04T07:43:22.414Z,999.1
2018-03-04T07:44:24.134Z,999.1
2018-03-04T07:45:25.817Z,999.2
2018-03-04T07:46:27.528Z,999.2
2018-03-04T07:47:29.824Z,999.2
2018-03-04T07:48:31.520Z,999.3
2018-03-04T07:49:33.198Z,999.3
2018-03-04T07:50:34.903Z,999.3
2018-03-04T07:51:36.593Z,999.3
2018-03-04T07:52:38.306Z,999.4
2018-03-04T07:53:39.988Z,999.4
2018-03-04T07:54:41.701Z,999.5
2018-03-04T07:55:43.392Z,999.5
2018-03-04T07:56:45.116Z,999.6
2018-03-04T07:57:46.812Z,999.6
2018-03-04T07:58:48.562Z,999.6
2018-03-04T07:59:50.285Z,999.7
2018-03-04T08:00:51.987Z,999.7
2018-03-04T08:01:53.669Z,999.7
2018-03-04T08:02:55.426Z,999.8
2018-03-04T08:03:57.114Z,999.7
2018-03-04T08:04:58.808Z,999.8
2018-03-04T08:06:00.627Z,999.7
2018-03-04T08:07:02.327Z,999.8
2018-03-04T08:08:04.010Z,999.8
2018-03-04T08:09:05.689Z,999.8
2018-03-04T08:10:07.396Z,999.8
2018-03-04T08:11:09.077Z,999.8
2018-03-04T08:12:10.789Z,999.8
2018-03-04T08:13:12.490Z,999.8
2018-03-04T08:14:14.200Z,999.8
2018-03-04T08:15:15.893Z,999.7
2018-03-04T08:16:17.574Z,999.8
2018-03-04T08:17:19.271Z,999.7
2018-03-04T08:18:20.955Z,999.8
2018-03-04T08:19:22.666Z,999.8
2018-03-04T08:20:24.356Z,999.8
2018-03-04T08:21:26.043Z,999.8
2018-03-04T08:22:27.721Z,999.8
2018-03-04T08:23:29.396Z,999.8
2018-03-04T08:24:31.104Z,999.8
2018-03-04T08:25:32.793Z,999.8
2018-03-04T08:26:34.502Z,999.8
2018-03-04T08:27:36.228Z,999.7
2018-03-04T08:28:38.053Z,999.8
2018-03-04T08:29:39.753Z,999.8
2018-03-04T08:30:41.556Z,999.7
2018-03-04T08:31:43.226Z,999.7
2018-03-04T08:32:45.051Z,999.7
2018-03-04T08:33:47.002Z,999.7
2018-03-04T08:34:48.753Z,999.7
2018-03-04T08:35:50.554Z,999.7
2018-03-04T08:36:52.436Z,999.7
2018-03-04T08:37:54.199Z,999.7
2018-03-04T08:38:56.002Z,999.7
2018-03-04T08:39:57.748Z,999.7
2018-03-04T08:40:59.550Z,999.7
2018-03-04T08:42:01.325Z,999.7
2018-03-04T08:43:03.150Z,999.7
2018-03-04T08:44:04.987Z,999.7
2018-03-04T08:45:06.725Z,999.7
2018-03-04T08:46:08.481Z,999.7
2018-03-04T08:47:10.287Z,999.7
2018-03-04T08:48:12.109Z,999.7
2018-03-04T08:49:14.045Z,999.7
2018-03-04T08:50:15.816Z,999.7
2018-03-04T08:51:17.677Z,999.8
2018-03-04T08:52:19.569Z,999.8
2018-03-04T08:53:21.400Z,999.8
2018-03-04T08:54:23.133Z,999.7
2018-03-04T08:55:24.970Z,999.7
2018-03-04T08:56:26.802Z,999.8
2018-03-04T08:57:28.655Z,999.7
2018-03-04T08:58:30.434Z,999.7
2018-03-04T08:59:32.266Z,999.6
2018-03-04T09:00:34.095Z,999.6
2018-03-04T09:01:35.910Z,999.6
2018-03-04T09:02:37.975Z,999.6
2018-03-04T09:03:40.103Z,999.6
2018-03-04T09:04:41.811Z,999.6
2018-03-04T09:05:43.513Z,999.6
2018-03-04T09:06:45.217Z,999.6
2018-03-04T09:07:46.913Z,999.5
2018-03-04T09:08:48.653Z,999.6
2018-03-04T09:09:50.346Z,999.5
2018-03-04T09:10:52.053Z,999.6
2018-03-04T09:11:53.741Z,999.6
2018-03-04T09:12:55.444Z,999.7
2018-03-04T09:13:57.137Z,999.7
2018-03-04T09:14:58.819Z,999.7
2018-03-04T09:16:00.533Z,999.7
2018-03-04T09:17:02.225Z,999.7
2018-03-04T09:18:03.987Z,999.6
2018-03-04T09:19:05.641Z,999.6
2018-03-04T09:20:07.358Z,999.6
2018-03-04T09:21:09.034Z,999.6
2018-03-04T09:22:10.739Z,999.6
2018-03-04T09:23:15.367Z,999.6
2018-03-04T09:24:16.990Z,999.6
2018-03-04T09:25:18.702Z,999.6
2018-03-04T09:26:20.391Z,999.5
2018-03-04T09:27:22.128Z,999.5
2018-03-04T09:28:23.835Z,999.6
2018-03-04T09:29:25.525Z,999.6
2018-03-04T09:30:27.220Z,999.6
2018-03-04T09:31:33.750Z,999.6
2018-03-04T09:32:39.333Z,999.6
2018-03-04T09:33:46.291Z,999.6
2018-03-04T09:34:48.432Z,999.5
2018-03-04T09:35:54.373Z,999.5
2018-03-04T09:36:56.068Z,999.5
2018-03-04T09:37:57.954Z,999.5
2018-03-04T09:38:59.633Z,999.5
2018-03-04T09:40:01.320Z,999.4
2018-03-04T09:41:03.021Z,999.4
2018-03-04T09:42:04.708Z,999.4
2018-03-04T09:43:06.445Z,999.4
2018-03-04T09:44:08.137Z,999.5
2018-03-04T09:45:09.855Z,999.5
2018-03-04T09:46:11.544Z,999.5
2018-03-04T09:47:13.255Z,999.4
2018-03-04T09:48:14.943Z,999.3
2018-03-04T09:49:16.637Z,999.3
2018-03-04T09:50:18.341Z,999.2
2018-03-04T09:51:20.129Z,999.2
2018-03-04T09:52:21.836Z,999.3
2018-03-04T09:53:23.564Z,999.4
2018-03-04T09:54:25.250Z,999.5
2018-03-04T09:55:26.943Z,999.5
2018-03-04T09:56:28.626Z,999.5
2018-03-04T09:57:30.337Z,999.4
2018-03-04T09:58:32.038Z,999.5
2018-03-04T09:59:33.746Z,999.4
2018-03-04T10:00:35.439Z,999.4
2018-03-04T10:01:37.143Z,999.3
2018-03-04T10:02:38.837Z,999.2
2018-03-04T10:03:40.531Z,999.2
2018-03-04T10:04:42.232Z,999.2
2018-03-04T10:05:44.078Z,999.2
2018-03-04T10:06:45.783Z,999.2
2018-03-04T10:07:47.475Z,999.2
2018-03-04T10:08:49.167Z,999.3
2018-03-04T10:09:50.890Z,999.3
2018-03-04T10:10:52.614Z,999.3
2018-03-04T10:11:54.301Z,999.3
2018-03-04T10:12:56.019Z,999.3
2018-03-04T10:13:57.749Z,999.4
2018-03-04T10:15:00.262Z,999.4
2018-03-04T10:16:02.083Z,999.4
2018-03-04T10:17:03.788Z,999.4
2018-03-04T10:18:05.483Z,999.4
2018-03-04T10:19:07.190Z,999.4
2018-03-04T10:20:08.970Z,999.5
2018-03-04T10:21:10.714Z,999.5
2018-03-04T10:22:12.451Z,999.5
2018-03-04T10:23:14.164Z,999.5
2018-03-04T10:24:15.934Z,999.6
2018-03-04T10:25:17.649Z,999.6
2018-03-04T10:26:19.354Z,999.7
2018-03-04T10:27:21.083Z,999.7
2018-03-04T10:28:22.801Z,999.7
2018-03-04T10:29:24.648Z,999.7
2018-03-04T10:30:26.361Z,999.7
2018-03-04T10:31:28.107Z,999.7
2018-03-04T10:32:29.740Z,999.7
2018-03-04T10:33:31.424Z,999.7
2018-03-04T10:34:33.139Z,999.8
2018-03-04T10:35:34.849Z,999.8
2018-03-04T10:36:36.565Z,999.8
2018-03-04T10:37:38.280Z,999.8
2018-03-04T10:38:39.980Z,999.8
2018-03-04T10:39:47.005Z,999.8
2018-03-04T10:40:48.302Z,999.7
2018-03-04T10:41:50.010Z,999.7
2018-03-04T10:42:51.743Z,999.7
2018-03-04T10:43:53.456Z,999.7
2018-03-04T10:44:55.148Z,999.6
2018-03-04T10:45:56.879Z,999.6
2018-03-04T10:46:58.582Z,999.5
2018-03-04T10:48:00.295Z,999.6
2018-03-04T10:49:01.985Z,999.6
2018-03-04T10:50:03.678Z,999.6
2018-03-04T10:51:05.376Z,999.6
2018-03-04T10:52:07.098Z,999.5
2018-03-04T10:53:08.815Z,999.6
2018-03-04T10:54:10.505Z,999.6
2018-03-04T10:55:12.387Z,999.6
2018-03-04T10:56:14.133Z,999.5
2018-03-04T10:57:15.827Z,999.5
2018-03-04T10:58:17.541Z,999.5
2018-03-04T10:59:19.246Z,999.5
2018-03-04T11:00:20.937Z,999.5
2018-03-04T11:01:22.626Z,999.5
2018-03-04T11:02:24.336Z,999.5
2018-03-04T11:03:26.070Z,999.4
2018-03-04T11:04:27.763Z,999.5
2018-03-04T11:05:29.568Z,999.4
2018-03-04T11:06:31.311Z,999.5
2018-03-04T11:07:33.021Z,999.5
2018-03-04T11:08:34.786Z,999.4
2018-03-04T11:09:36.491Z,999.4
2018-03-04T11:10:38.200Z,999.3
2018-03-04T11:11:39.913Z,999.4
2018-03-04T11:12:41.614Z,999.3
2018-03-04T11:13:43.341Z,999.4
2018-03-04T11:14:45.049Z,999.4
2018-03-04T11:15:46.776Z,999.4
2018-03-04T11:16:48.468Z,999.4
2018-03-04T11:17:50.193Z,999.5
2018-03-04T11:18:51.922Z,999.4
2018-03-04T11:19:53.617Z,999.5
2018-03-04T11:20:55.347Z,999.5
2018-03-04T11:21:57.073Z,999.4
2018-03-04T11:22:58.833Z,999.4
2018-03-04T11:24:00.555Z,999.5
2018-03-04T11:25:02.271Z,999.4
2018-03-04T11:26:04.093Z,999.5
2018-03-04T11:27:05.790Z,999.5
2018-03-04T11:28:07.499Z,999.5
2018-03-04T11:29:09.233Z,999.5
2018-03-04T11:30:10.941Z,999.5
2018-03-04T11:31:12.661Z,999.5
2018-03-04T11:32:14.416Z,999.5
2018-03-04T11:33:16.122Z,999.5
2018-03-04T11:34:17.839Z,999.6
2018-03-04T11:35:19.564Z,999.5
2018-03-04T11:36:21.266Z,999.5
2018-03-04T11:37:22.952Z,999.6
2018-03-04T11:38:24.630Z,999.6
2018-03-04T11:39:26.348Z,999.5
2018-03-04T11:40:28.076Z,999.5
2018-03-04T11:41:29.764Z,999.4
2018-03-04T11:42:31.494Z,999.4
2018-03-04T11:43:33.182Z,999.4
2018-03-04T11:44:34.860Z,999.4
2018-03-04T11:45:36.572Z,999.4
2018-03-04T11:46:38.263Z,999.6
2018-03-04T11:47:39.972Z,999.5
2018-03-04T11:48:41.678Z,999.6
2018-03-04T11:49:43.400Z,999.5
2018-03-04T11:50:45.084Z,999.4
2018-03-04T11:51:46.818Z,999.5
2018-03-04T11:52:48.519Z,999.6
2018-03-04T11:53:50.220Z,999.6
2018-03-04T11:54:51.921Z,999.5
2018-03-04T11:55:53.629Z,999.5
2018-03-04T11:56:55.315Z,999.4
2018-03-04T11:57:57.018Z,999.4
2018-03-04T11:58:58.729Z,999.5
2018-03-04T12:00:00.436Z,999.4
2018-03-04T12:01:02.188Z,999.3
2018-03-04T12:02:03.883Z,999.3
2018-03-04T12:03:05.593Z,999.4
2018-03-04T12:04:07.286Z,999.4
2018-03-04T12:05:09.101Z,999.4
2018-03-04T12:06:10.808Z,999.3
2018-03-04T12:07:12.525Z,999.3
2018-03-04T12:08:14.249Z,999.3
2018-03-04T12:09:15.977Z,999.4
2018-03-04T12:10:17.682Z,999.3
2018-03-04T12:11:19.450Z,999.3
2018-03-04T12:12:21.277Z,999.2
2018-03-04T12:13:22.985Z,999.1
2018-03-04T12:14:24.716Z,999.1
2018-03-04T12:15:26.415Z,999.1
2018-03-04T12:16:28.160Z,999.1
2018-03-04T12:17:29.892Z,999.1
2018-03-04T12:18:31.642Z,999.1
2018-03-04T12:19:33.370Z,998.9
2018-03-04T12:20:35.067Z,998.9
2018-03-04T12:21:36.794Z,998.9
2018-03-04T12:22:38.509Z,998.9
2018-03-04T12:23:40.218Z,998.9
2018-03-04T12:24:41.930Z,998.9
2018-03-04T12:25:43.644Z,998.9
2018-03-04T12:26:45.382Z,999.0
2018-03-04T12:27:47.081Z,998.9
2018-03-04T12:28:48.818Z,998.9
2018-03-04T12:29:50.586Z,999.0
2018-03-04T12:30:52.315Z,999.0
2018-03-04T12:31:54.043Z,998.9
2018-03-04T12:32:55.887Z,998.9
2018-03-04T12:33:57.575Z,998.8
2018-03-04T12:34:59.334Z,998.8
2018-03-04T12:36:01.026Z,998.8
2018-03-04T12:37:02.726Z,998.7
2018-03-04T12:38:04.425Z,998.7
2018-03-04T12:39:06.145Z,998.5
2018-03-04T12:40:07.848Z,998.3
2018-03-04T12:41:09.539Z,998.4
2018-03-04T12:42:11.277Z,998.5
2018-03-04T12:43:12.936Z,998.5
2018-03-04T12:44:14.652Z,998.6
2018-03-04T12:45:16.336Z,998.5
2018-03-04T12:46:18.067Z,998.4
2018-03-04T12:47:19.782Z,998.4
2018-03-04T12:48:21.501Z,998.3
2018-03-04T12:49:23.187Z,998.4
2018-03-04T12:50:24.938Z,998.4
2018-03-04T12:51:26.654Z,998.3
2018-03-04T12:52:28.361Z,998.4
2018-03-04T12:53:30.045Z,998.4
2018-03-04T12:54:31.716Z,998.4
2018-03-04T12:55:33.443Z,998.3
2018-03-04T12:56:35.138Z,998.2
2018-03-04T12:57:36.845Z,998.3
2018-03-04T12:58:38.545Z,998.3
2018-03-04T12:59:40.246Z,998.3
2018-03-04T13:00:41.939Z,998.3
2018-03-04T13:01:43.658Z,998.2
2018-03-04T13:02:45.388Z,998.3
2018-03-04T13:03:47.041Z,998.3
2018-03-04T13:04:48.783Z,998.2
2018-03-04T13:05:50.469Z,998.2
2018-03-04T13:06:52.178Z,998.2
2018-03-04T13:07:53.889Z,998.1
2018-03-04T13:08:55.579Z,998.1
2018-03-04T13:09:57.266Z,998.1
2018-03-04T13:10:58.957Z,997.9
2018-03-04T13:12:00.655Z,998.0
2018-03-04T13:13:02.380Z,998.0
2018-03-04T13:14:04.111Z,998.0
2018-03-04T13:15:05.809Z,998.0